Terminal Aerodrome Forecast
Issued by NWS Binghamton, NY

Home | Current Version | Previous Version | Text Only | Print | Product List | Glossary On
Versions: 1 2 3 4 5 6 7 8 9 10 11 12 13 14 15 16 17 18 19
000
FTUS41 KBGM 311505 AAB
TAFBGM
TAF AMD
KBGM 311505Z 3115/0112 32005KT P6SM BKN015 BKN025
     FM311700 32007KT P6SM BKN040
     FM010000 31004KT P6SM SKC
     FM010900 VRB03KT 3SM BR SKC=

USA.gov is the U.S. government's official web portal to all federal, state and local government web resources and services.